Time;durP1;ratioP1;P1;durP2;ratioP2;P2;SDS_P1;SDS_P2;PMS_P1;PMS_P2;Temp;Humidity;BMP_temperature;BMP_pressure;BME280_temperature;BME280_humidity;BME280_pressure;Samples;Min_cycle;Max_cycle;Signal;HPM_P1;HPM_P2
2023/06/03 00:01:34;;;;;;;6.70;2.10;;;16.00;71.00;;;;;;4993732;28;20649;-80
2023/06/03 00:03:59;;;;;;;3.07;1.40;;;16.00;71.40;;;;;;5009049;28;20237;-80
2023/06/03 00:06:25;;;;;;;3.13;1.50;;;16.00;71.60;;;;;;4992389;28;20586;-81
2023/06/03 00:08:51;;;;;;;6.10;2.87;;;16.00;72.70;;;;;;5001898;28;20318;-80
2023/06/03 00:11:16;;;;;;;3.10;1.73;;;16.00;72.80;;;;;;5011453;28;20183;-80
2023/06/03 00:13:42;;;;;;;4.40;1.63;;;15.90;73.10;;;;;;4992667;28;20171;-80
2023/06/03 00:16:08;;;;;;;4.40;1.80;;;15.90;73.40;;;;;;4992304;28;20175;-81
2023/06/03 00:18:33;;;;;;;3.83;1.87;;;15.90;73.90;;;;;;4976493;28;20198;-80
2023/06/03 00:21:01;;;;;;;3.70;1.80;;;15.90;78.30;;;;;;4994923;28;20214;-79
2023/06/03 00:23:27;;;;;;;3.30;1.50;;;15.80;77.10;;;;;;4997671;28;20190;-80
2023/06/03 00:25:53;;;;;;;5.70;1.67;;;15.90;77.40;;;;;;5017496;28;20170;-80
2023/06/03 00:28:19;;;;;;;6.83;1.87;;;15.90;78.70;;;;;;4995327;28;20186;-80
2023/06/03 00:30:46;;;;;;;4.30;1.70;;;15.80;78.40;;;;;;5011944;28;20597;-80
2023/06/03 00:33:11;;;;;;;2.70;1.33;;;15.80;78.20;;;;;;4995371;28;20566;-80
2023/06/03 00:35:37;;;;;;;3.50;1.67;;;15.80;78.40;;;;;;5011927;28;20273;-80
2023/06/03 00:38:03;;;;;;;3.93;1.87;;;15.80;78.80;;;;;;5011506;28;20182;-80
2023/06/03 00:40:28;;;;;;;4.13;2.33;;;15.80;78.90;;;;;;5012967;28;20542;-80
2023/06/03 00:42:54;;;;;;;4.63;1.70;;;15.70;79.10;;;;;;5011678;28;20178;-80
2023/06/03 00:45:20;;;;;;;5.00;1.63;;;15.70;79.20;;;;;;4995370;28;20212;-80
2023/06/03 00:47:47;;;;;;;2.90;1.40;;;15.70;79.50;;;;;;5028200;28;20179;-80
2023/06/03 00:50:14;;;;;;;3.60;1.40;;;15.70;79.90;;;;;;5012357;28;20975;-80
2023/06/03 00:52:40;;;;;;;4.07;1.67;;;15.60;80.00;;;;;;5011312;28;20574;-81
2023/06/03 00:55:07;;;;;;;4.70;1.50;;;15.60;80.40;;;;;;5011285;28;20578;-80
2023/06/03 00:57:33;;;;;;;3.47;1.38;;;15.60;80.90;;;;;;5011742;28;20577;-80
2023/06/03 00:59:59;;;;;;;4.70;1.40;;;15.60;81.20;;;;;;5010607;28;20229;-80
2023/06/03 01:02:25;;;;;;;4.63;2.20;;;15.50;81.40;;;;;;5014565;28;20174;-79
2023/06/03 01:04:55;;;;;;;3.50;1.67;;;15.50;81.90;;;;;;5004140;28;20226;-80
2023/06/03 01:07:49;;;;;;;3.20;1.50;;;15.40;82.10;;;;;;5008164;28;20693;-80
2023/06/03 01:10:15;;;;;;;2.60;1.40;;;15.40;83.60;;;;;;5012016;28;20593;-81
2023/06/03 01:13:02;;;;;;;3.30;1.33;;;15.40;82.70;;;;;;5011055;28;20573;-79
2023/06/03 01:15:29;;;;;;;3.40;1.40;;;15.30;84.20;;;;;;5007975;28;20277;-79
2023/06/03 01:18:00;;;;;;;9.15;2.00;;;15.30;83.30;;;;;;4991475;28;20943;-79
2023/06/03 01:20:28;;;;;;;6.63;1.65;;;15.30;84.30;;;;;;4974168;28;20241;-79
2023/06/03 01:23:17;;;;;;;3.28;1.75;;;15.30;84.30;;;;;;4990611;28;20237;-79
2023/06/03 01:25:43;;;;;;;5.25;1.80;;;15.20;85.50;;;;;;4984207;28;20210;-79
2023/06/03 01:28:08;;;;;;;4.00;1.80;;;15.20;85.00;;;;;;5008589;28;20174;-79
2023/06/03 01:30:35;;;;;;;4.50;2.00;;;15.20;85.60;;;;;;5000746;28;20233;-79
2023/06/03 01:33:02;;;;;;;3.90;1.70;;;15.20;86.00;;;;;;4993893;28;20594;-79
2023/06/03 01:35:28;;;;;;;5.63;2.08;;;15.10;86.60;;;;;;4994516;28;20171;-79
2023/06/03 01:37:56;;;;;;;2.67;1.58;;;15.10;87.10;;;;;;5010784;28;20178;-79
2023/06/03 01:40:26;;;;;;;7.82;1.60;;;15.10;87.50;;;;;;5014457;28;20182;-78
2023/06/03 01:42:52;;;;;;;3.90;1.83;;;15.10;87.80;;;;;;5010639;28;20742;-79
2023/06/03 01:45:19;;;;;;;7.60;2.00;;;15.10;88.20;;;;;;5010242;28;20301;-79
2023/06/03 01:47:45;;;;;;;3.67;2.63;;;15.00;88.40;;;;;;5010592;28;20309;-79
2023/06/03 01:50:15;;;;;;;4.25;2.30;;;15.00;89.60;;;;;;5010572;28;20608;-79
2023/06/03 01:52:40;;;;;;;4.00;2.22;;;15.00;89.80;;;;;;4993934;28;20217;-79
2023/06/03 01:55:06;;;;;;;4.33;2.60;;;15.00;90.10;;;;;;5010264;28;20233;-79
2023/06/03 01:57:32;;;;;;;4.30;2.10;;;15.00;90.20;;;;;;4994150;28;20282;-79
2023/06/03 01:59:58;;;;;;;11.10;2.50;;;15.00;90.40;;;;;;4992814;28;20734;-79
2023/06/03 02:02:24;;;;;;;3.10;1.80;;;14.90;90.40;;;;;;4994022;28;20174;-79
2023/06/03 02:04:51;;;;;;;6.23;2.07;;;14.90;90.50;;;;;;5010259;28;21199;-79
2023/06/03 02:07:17;;;;;;;4.05;1.90;;;15.00;90.80;;;;;;4993874;28;20170;-79
2023/06/03 02:09:44;;;;;;;5.10;1.90;;;14.90;90.80;;;;;;5010082;28;20190;-79
2023/06/03 02:12:10;;;;;;;7.10;2.17;;;14.90;91.40;;;;;;4989590;28;20750;-79
2023/06/03 02:14:37;;;;;;;4.63;2.13;;;14.90;91.50;;;;;;4990819;28;20671;-79
2023/06/03 02:17:06;;;;;;;3.10;1.80;;;14.90;91.70;;;;;;4994298;28;20531;-79
2023/06/03 02:19:31;;;;;;;6.35;2.03;;;14.80;91.70;;;;;;4990492;28;20225;-79
2023/06/03 02:21:58;;;;;;;3.40;2.00;;;14.80;91.80;;;;;;5006427;28;20182;-79
2023/06/03 02:24:28;;;;;;;4.07;2.17;;;14.80;91.80;;;;;;4990420;28;20225;-79
2023/06/03 02:26:56;;;;;;;3.15;1.75;;;14.80;91.90;;;;;;4991088;28;20171;-79
2023/06/03 02:29:23;;;;;;;3.83;1.65;;;14.80;91.90;;;;;;4990537;28;20202;-79
2023/06/03 02:31:50;;;;;;;3.63;1.95;;;14.80;92.10;;;;;;5008866;28;20218;-79
2023/06/03 02:34:18;;;;;;;3.58;1.40;;;14.80;92.10;;;;;;4998318;28;20182;-79
2023/06/03 02:36:44;;;;;;;3.80;1.63;;;14.80;92.20;;;;;;4997275;28;20254;-79
2023/06/03 02:39:11;;;;;;;3.60;1.77;;;14.70;92.40;;;;;;4977649;28;20983;-79
2023/06/03 02:41:38;;;;;;;3.97;1.38;;;14.80;92.60;;;;;;4993782;28;20185;-79
2023/06/03 02:44:05;;;;;;;3.50;1.83;;;14.70;92.60;;;;;;4993609;28;20203;-79
2023/06/03 02:46:32;;;;;;;4.47;2.35;;;14.70;92.70;;;;;;4994021;28;20179;-79
2023/06/03 02:49:02;;;;;;;4.67;1.67;;;14.70;93.10;;;;;;5007244;28;20245;-79
2023/06/03 02:51:28;;;;;;;2.60;1.40;;;14.70;92.80;;;;;;5014922;28;20221;-79
2023/06/03 02:53:54;;;;;;;4.87;1.57;;;14.60;92.90;;;;;;4994441;28;20656;-79
2023/06/03 02:56:22;;;;;;;2.77;1.33;;;14.60;92.90;;;;;;4993859;28;20178;-79
2023/06/03 02:58:48;;;;;;;3.65;1.23;;;14.60;93.00;;;;;;5014545;28;20608;-79
2023/06/03 03:01:14;;;;;;;4.20;2.00;;;14.60;93.20;;;;;;5012859;28;20182;-79
2023/06/03 03:03:40;;;;;;;2.90;1.37;;;14.50;93.20;;;;;;5013302;28;20320;-79
2023/06/03 03:06:07;;;;;;;2.40;1.88;;;14.50;93.30;;;;;;5012486;28;20592;-79
2023/06/03 03:08:35;;;;;;;3.35;1.52;;;14.50;93.40;;;;;;5013361;28;20191;-79
2023/06/03 03:11:02;;;;;;;2.50;1.45;;;14.50;93.70;;;;;;5012672;28;20176;-79
2023/06/03 03:13:28;;;;;;;4.30;1.47;;;14.40;93.50;;;;;;5013363;28;20530;-79
2023/06/03 03:15:54;;;;;;;3.67;1.70;;;14.40;93.60;;;;;;5013207;28;21079;-79
2023/06/03 03:18:21;;;;;;;3.45;1.63;;;14.40;93.70;;;;;;5012940;28;20699;-79
2023/06/03 03:20:47;;;;;;;5.40;1.50;;;14.40;93.80;;;;;;4996725;28;20182;-79
2023/06/03 03:23:22;;;;;;;3.80;1.17;;;14.40;93.90;;;;;;4996660;28;20604;-79
2023/06/03 03:25:48;;;;;;;3.28;1.73;;;14.30;94.20;;;;;;4996855;28;20646;-79
2023/06/03 03:28:14;;;;;;;2.83;1.83;;;14.30;93.90;;;;;;5012573;28;20261;-79
2023/06/03 03:30:43;;;;;;;2.15;1.10;;;14.30;94.10;;;;;;5012357;28;20179;-79
2023/06/03 03:33:09;;;;;;;2.60;1.27;;;14.30;94.10;;;;;;5021423;28;20658;-79
2023/06/03 03:35:40;;;;;;;3.65;1.50;;;14.30;94.50;;;;;;4978591;28;20187;-80
2023/06/03 03:38:07;;;;;;;3.60;1.95;;;14.30;94.20;;;;;;5012334;28;20634;-79
2023/06/03 03:40:38;;;;;;;2.85;1.70;;;14.30;94.30;;;;;;5012841;28;20186;-79
2023/06/03 03:43:04;;;;;;;5.85;1.63;;;14.20;94.50;;;;;;5011688;28;20178;-79
2023/06/03 03:45:37;;;;;;;3.28;1.90;;;14.20;94.40;;;;;;5011656;28;20206;-79
2023/06/03 03:48:16;;;;;;;4.22;1.65;;;14.20;94.70;;;;;;5012642;28;20174;-79
2023/06/03 03:50:46;;;;;;;3.95;1.60;;;14.20;94.80;;;;;;5011816;28;20197;-76
2023/06/03 03:53:31;;;;;;;2.97;1.38;;;14.30;94.60;;;;;;5012431;28;20178;-76
2023/06/03 03:55:58;;;;;;;3.17;1.45;;;14.30;94.70;;;;;;5011921;28;20182;-76
2023/06/03 03:58:43;;;;;;;5.32;1.30;;;14.30;94.70;;;;;;5011819;28;20195;-76
2023/06/03 04:01:24;;;;;;;3.63;1.52;;;14.40;94.50;;;;;;5011578;28;20182;-76
2023/06/03 04:03:59;;;;;;;2.60;1.35;;;14.40;94.40;;;;;;4995897;28;20319;-76
2023/06/03 04:06:29;;;;;;;3.42;1.15;;;14.50;94.10;;;;;;4999207;28;20235;-76
2023/06/03 04:08:56;;;;;;;3.70;1.15;;;14.50;93.90;;;;;;5012318;28;20202;-76
2023/06/03 04:11:28;;;;;;;3.25;1.23;;;14.60;93.60;;;;;;5027951;28;20532;-76
2023/06/03 04:13:58;;;;;;;3.47;1.85;;;14.60;93.20;;;;;;5012057;28;20178;-76
2023/06/03 04:16:34;;;;;;;3.03;1.10;;;14.70;93.10;;;;;;5011648;28;20174;-76
2023/06/03 04:19:06;;;;;;;3.70;1.10;;;14.80;92.90;;;;;;5011839;28;20956;-76
2023/06/03 04:21:37;;;;;;;2.75;1.10;;;14.90;92.10;;;;;;5011315;28;20585;-76
2023/06/03 04:24:05;;;;;;;1.73;0.90;;;15.00;92.60;;;;;;5012968;28;20297;-76
2023/06/03 04:26:30;;;;;;;5.73;1.10;;;15.20;92.80;;;;;;4992930;28;20174;-76
2023/06/03 04:28:56;;;;;;;4.63;1.10;;;15.50;93.10;;;;;;5016156;28;20644;-76
2023/06/03 04:31:22;;;;;;;3.97;1.27;;;15.80;93.20;;;;;;5008657;28;20181;-76
2023/06/03 04:33:49;;;;;;;2.30;1.27;;;16.10;92.20;;;;;;5010904;28;20699;-75
2023/06/03 04:36:15;;;;;;;5.73;1.23;;;16.30;91.00;;;;;;5008486;28;20691;-76
2023/06/03 04:38:41;;;;;;;6.07;1.00;;;16.40;90.50;;;;;;4991562;28;20622;-76
2023/06/03 04:41:10;;;;;;;3.43;1.10;;;16.60;90.10;;;;;;4959679;28;20582;-76
2023/06/03 04:43:40;;;;;;;4.10;0.83;;;16.60;87.80;;;;;;4994896;28;20590;-76
2023/06/03 04:46:10;;;;;;;3.03;1.00;;;16.60;87.80;;;;;;4992087;28;20582;-76
2023/06/03 04:48:36;;;;;;;4.77;0.93;;;16.70;87.50;;;;;;4977934;28;20660;-76
2023/06/03 04:51:06;;;;;;;2.67;1.23;;;16.70;86.30;;;;;;5003061;28;20590;-76
2023/06/03 04:53:33;;;;;;;1.93;0.90;;;16.80;86.30;;;;;;5009899;28;20647;-76
2023/06/03 04:56:02;;;;;;;3.30;0.90;;;17.00;86.40;;;;;;5023334;28;20598;-76
2023/06/03 04:58:28;;;;;;;2.53;0.97;;;17.20;85.80;;;;;;5017777;28;20616;-76
2023/06/03 05:00:54;;;;;;;5.30;1.00;;;17.30;84.50;;;;;;5010634;28;20980;-76
2023/06/03 05:03:22;;;;;;;2.17;0.90;;;17.50;83.70;;;;;;5010995;28;20578;-76
2023/06/03 05:05:48;;;;;;;3.00;0.90;;;17.80;83.10;;;;;;4994322;28;20626;-76
2023/06/03 05:08:18;;;;;;;2.00;0.90;;;18.00;83.80;;;;;;4994824;28;20577;-76
2023/06/03 05:10:44;;;;;;;1.70;0.80;;;18.30;81.90;;;;;;5010506;28;20632;-76
2023/06/03 05:13:10;;;;;;;4.83;1.00;;;18.50;81.90;;;;;;4994434;28;21163;-76
2023/06/03 05:15:37;;;;;;;2.00;0.70;;;18.70;81.50;;;;;;5010437;28;20182;-76
2023/06/03 05:18:04;;;;;;;3.13;0.90;;;18.90;79.70;;;;;;4994200;28;20624;-76
2023/06/03 05:20:32;;;;;;;3.13;0.93;;;19.00;78.20;;;;;;4996074;28;20647;-76
2023/06/03 05:22:58;;;;;;;3.30;1.20;;;19.10;74.80;;;;;;5006386;28;20648;-76
2023/06/03 05:25:24;;;;;;;2.00;0.80;;;19.20;74.40;;;;;;5007070;28;20710;-76
2023/06/03 05:27:50;;;;;;;3.37;1.30;;;19.30;74.30;;;;;;4974182;28;21248;-76
2023/06/03 05:30:18;;;;;;;2.93;1.43;;;19.40;73.40;;;;;;4975428;28;20693;-76
2023/06/03 05:32:45;;;;;;;1.83;0.70;;;19.50;71.80;;;;;;4973988;28;20585;-77
2023/06/03 05:35:12;;;;;;;2.57;0.80;;;19.50;71.00;;;;;;5002639;28;21156;-76
2023/06/03 05:37:39;;;;;;;3.10;0.70;;;19.50;69.60;;;;;;5010762;28;20581;-76
2023/06/03 05:40:06;;;;;;;1.93;0.80;;;19.50;69.20;;;;;;4995578;28;21001;-76
2023/06/03 05:42:34;;;;;;;1.80;0.80;;;19.50;70.00;;;;;;4994239;28;20631;-76
2023/06/03 05:45:01;;;;;;;1.60;0.70;;;19.50;70.10;;;;;;4993381;28;20636;-76
2023/06/03 05:47:26;;;;;;;1.60;0.67;;;19.60;69.40;;;;;;4994022;28;20570;-76
2023/06/03 05:49:53;;;;;;;1.53;0.60;;;19.80;70.90;;;;;;5009779;28;20600;-75
2023/06/03 05:52:19;;;;;;;3.17;1.03;;;20.20;71.50;;;;;;5010388;28;20589;-75
2023/06/03 05:54:45;;;;;;;4.87;0.90;;;20.50;68.10;;;;;;5010071;28;20935;-75
2023/06/03 05:57:11;;;;;;;2.00;0.60;;;20.90;69.70;;;;;;5013693;28;20584;-75
2023/06/03 05:59:37;;;;;;;3.73;0.80;;;21.60;70.00;;;;;;4992306;28;21235;-75
2023/06/03 06:02:03;;;;;;;2.23;0.70;;;22.10;64.20;;;;;;4989898;28;20183;-75
2023/06/03 06:04:29;;;;;;;4.00;0.70;;;22.70;64.10;;;;;;4990806;28;20218;-75
2023/06/03 06:06:55;;;;;;;2.30;0.80;;;23.50;66.80;;;;;;4991027;28;21130;-75
2023/06/03 06:09:21;;;;;;;1.40;0.70;;;24.30;66.10;;;;;;4990440;28;20633;-76
2023/06/03 06:11:47;;;;;;;1.70;0.70;;;25.10;62.80;;;;;;4989764;28;20199;-75
2023/06/03 06:14:13;;;;;;;3.77;0.70;;;25.90;64.80;;;;;;5006958;28;20615;-76
2023/06/03 06:16:40;;;;;;;4.77;0.60;;;26.80;63.30;;;;;;4992020;28;20585;-76
2023/06/03 06:19:06;;;;;;;3.00;0.53;;;27.50;58.10;;;;;;5008066;28;20678;-76
2023/06/03 06:21:32;;;;;;;2.53;0.70;;;28.00;56.60;;;;;;5000669;28;20643;-76
2023/06/03 06:23:59;;;;;;;1.97;0.87;;;28.50;55.60;;;;;;4993266;28;20649;-76
2023/06/03 06:26:25;;;;;;;2.73;0.90;;;29.20;54.00;;;;;;5009430;28;21240;-76
2023/06/03 06:28:54;;;;;;;3.97;0.90;;;29.60;52.10;;;;;;4993100;28;20229;-76
2023/06/03 06:31:21;;;;;;;2.40;0.60;;;29.80;51.10;;;;;;4992730;28;20582;-76
2023/06/03 06:33:53;;;;;;;2.90;0.60;;;30.20;48.30;;;;;;5011701;28;20677;-76
2023/06/03 06:36:30;;;;;;;2.23;0.80;;;30.20;45.70;;;;;;4998366;28;20585;-75
2023/06/03 06:38:58;;;;;;;1.93;0.60;;;30.10;44.20;;;;;;4992997;28;20637;-76
2023/06/03 06:41:27;;;;;;;2.40;0.80;;;30.20;43.50;;;;;;5025782;28;20592;-76
2023/06/03 06:43:55;;;;;;;1.80;0.60;;;30.40;44.00;;;;;;5025623;28;20582;-76
2023/06/03 06:46:23;;;;;;;1.63;0.67;;;30.80;44.70;;;;;;5026010;28;20582;-76
2023/06/03 06:48:49;;;;;;;1.60;0.60;;;31.30;43.90;;;;;;4998222;28;20976;-76
2023/06/03 06:51:19;;;;;;;2.80;0.80;;;31.60;44.10;;;;;;4989285;28;20572;-76
2023/06/03 06:53:52;;;;;;;3.23;0.70;;;31.80;42.90;;;;;;5006387;28;20583;-76
2023/06/03 06:56:18;;;;;;;1.70;0.70;;;31.90;41.20;;;;;;4989455;28;20742;-77
2023/06/03 06:58:52;;;;;;;1.47;0.67;;;32.10;39.90;;;;;;4973656;28;20675;-76
2023/06/03 07:01:18;;;;;;;1.90;0.67;;;32.00;40.00;;;;;;4989069;28;20575;-76
2023/06/03 07:03:47;;;;;;;1.73;0.70;;;31.90;39.40;;;;;;4989843;28;20585;-75
2023/06/03 07:06:14;;;;;;;3.20;0.70;;;32.10;40.30;;;;;;5005190;28;20579;-76
2023/06/03 07:08:41;;;;;;;2.33;0.80;;;32.20;39.00;;;;;;4973730;28;20708;-75
2023/06/03 07:11:08;;;;;;;1.60;0.60;;;32.00;37.60;;;;;;4975773;28;20665;-75
2023/06/03 07:13:38;;;;;;;3.20;1.00;;;32.10;38.50;;;;;;5006012;28;20579;-76
2023/06/03 07:16:06;;;;;;;2.03;0.60;;;32.30;38.10;;;;;;4994961;28;20608;-75
2023/06/03 07:18:32;;;;;;;2.33;0.60;;;32.60;38.50;;;;;;5000527;28;20609;-76
2023/06/03 07:20:59;;;;;;;1.80;0.70;;;32.70;37.30;;;;;;4993050;28;20629;-75
2023/06/03 07:23:26;;;;;;;2.10;0.60;;;32.90;37.80;;;;;;4994170;28;21184;-75
2023/06/03 07:25:55;;;;;;;3.40;0.70;;;33.30;38.10;;;;;;4989792;28;20637;-76
2023/06/03 07:28:33;;;;;;;1.80;0.70;;;33.90;38.30;;;;;;4976343;28;20641;-76
2023/06/03 07:31:10;;;;;;;1.80;1.00;;;34.50;37.20;;;;;;4977059;28;20613;-76
2023/06/03 07:33:58;;;;;;;3.37;0.60;;;34.90;37.30;;;;;;4992639;28;20593;-75
2023/06/03 07:36:30;;;;;;;3.17;0.60;;;35.50;37.30;;;;;;4977195;28;20608;-76
2023/06/03 07:39:08;;;;;;;1.83;0.60;;;36.10;36.60;;;;;;4992485;28;20626;-76
2023/06/03 07:41:51;;;;;;;4.33;0.60;;;36.30;35.00;;;;;;4977297;28;20179;-76
2023/06/03 07:44:34;;;;;;;2.23;0.70;;;36.70;35.60;;;;;;4976338;28;20780;-76
2023/06/03 07:47:00;;;;;;;2.37;0.70;;;37.10;35.00;;;;;;4980555;28;20604;-75
2023/06/03 07:49:26;;;;;;;1.93;0.60;;;37.50;35.00;;;;;;4993718;28;20693;-76
2023/06/03 07:51:53;;;;;;;1.87;0.70;;;37.50;33.40;;;;;;4992412;28;21051;-76
2023/06/03 07:54:19;;;;;;;2.23;0.60;;;37.50;33.30;;;;;;4992898;28;20187;-76
2023/06/03 07:56:46;;;;;;;1.40;0.60;;;37.80;34.20;;;;;;4992245;28;20612;-76
2023/06/03 07:59:14;;;;;;;2.00;0.60;;;38.00;32.60;;;;;;4992587;28;20642;-75
2023/06/03 08:01:40;;;;;;;3.50;0.90;;;38.20;32.50;;;;;;5000555;28;20640;-76
2023/06/03 08:04:21;;;;;;;2.43;0.70;;;38.50;32.30;;;;;;4994418;28;20956;-77
2023/06/03 08:06:52;;;;;;;1.80;0.70;;;38.80;32.10;;;;;;4993584;28;20697;-76
2023/06/03 08:09:40;;;;;;;1.80;0.80;;;39.10;31.70;;;;;;4992508;28;20705;-77
2023/06/03 08:12:08;;;;;;;3.40;0.90;;;39.30;29.30;;;;;;4998503;28;20684;-77
2023/06/03 08:14:38;;;;;;;2.70;0.80;;;39.10;30.30;;;;;;4995887;28;20593;-77
2023/06/03 08:17:07;;;;;;;1.80;0.70;;;39.20;30.00;;;;;;5011654;28;20993;-78
2023/06/03 08:19:34;;;;;;;4.23;0.70;;;39.30;30.20;;;;;;5028449;28;20665;-78
2023/06/03 08:22:00;;;;;;;1.60;0.80;;;39.40;29.10;;;;;;5027846;28;20932;-78
2023/06/03 08:24:26;;;;;;;1.60;0.80;;;39.50;29.20;;;;;;5015717;28;20675;-77
2023/06/03 08:26:52;;;;;;;1.50;0.60;;;39.10;28.20;;;;;;5028090;28;20646;-77
2023/06/03 08:29:18;;;;;;;1.70;0.70;;;39.00;28.30;;;;;;5010783;28;20205;-77
2023/06/03 08:31:44;;;;;;;2.80;0.80;;;38.60;28.20;;;;;;4995191;28;20182;-78
2023/06/03 08:34:10;;;;;;;2.03;0.60;;;38.30;28.10;;;;;;5011737;28;21125;-77
2023/06/03 08:36:36;;;;;;;1.97;0.70;;;37.90;27.30;;;;;;4992150;28;20640;-77
2023/06/03 08:39:02;;;;;;;2.33;0.70;;;37.40;27.50;;;;;;4992678;28;20211;-77
2023/06/03 08:41:37;;;;;;;3.47;0.87;;;37.30;28.10;;;;;;4991656;28;20584;-77
2023/06/03 08:44:13;;;;;;;1.67;0.90;;;37.20;27.90;;;;;;5007827;28;21012;-78
2023/06/03 08:46:57;;;;;;;3.40;0.80;;;37.20;27.80;;;;;;4991847;28;20686;-77
2023/06/03 08:49:30;;;;;;;3.50;0.90;;;37.20;28.20;;;;;;4991310;28;20629;-77
2023/06/03 08:51:58;;;;;;;1.90;0.80;;;37.50;28.40;;;;;;4992850;28;20600;-78
2023/06/03 08:54:29;;;;;;;2.83;0.80;;;37.60;27.30;;;;;;4991820;28;20617;-77
2023/06/03 08:57:05;;;;;;;2.10;0.70;;;37.20;27.20;;;;;;4997129;28;20612;-77
2023/06/03 08:59:34;;;;;;;2.57;1.00;;;37.10;27.70;;;;;;5012806;28;20636;-78
2023/06/03 09:02:04;;;;;;;2.40;0.90;;;37.30;28.00;;;;;;5015921;28;20911;-77
2023/06/03 09:04:31;;;;;;;2.63;1.00;;;37.40;28.40;;;;;;4994889;28;20617;-77
2023/06/03 09:06:58;;;;;;;1.70;0.80;;;37.70;28.10;;;;;;5010904;28;20909;-78
2023/06/03 09:09:25;;;;;;;2.07;0.90;;;37.50;27.30;;;;;;5002543;28;20622;-78
2023/06/03 09:11:51;;;;;;;4.73;0.93;;;37.30;27.20;;;;;;5004787;28;20688;-78
2023/06/03 09:14:18;;;;;;;1.50;0.70;;;37.30;27.40;;;;;;5012306;28;20573;-78
2023/06/03 09:16:44;;;;;;;2.83;0.80;;;37.40;28.10;;;;;;5011862;28;20581;-77
2023/06/03 09:19:10;;;;;;;1.60;0.70;;;37.70;27.50;;;;;;5012259;28;20979;-78
2023/06/03 09:21:39;;;;;;;2.40;0.63;;;37.60;27.50;;;;;;5011837;28;20569;-77
2023/06/03 09:24:05;;;;;;;1.67;0.83;;;37.90;27.60;;;;;;5009901;28;20717;-77
2023/06/03 09:26:31;;;;;;;1.47;0.60;;;38.00;27.20;;;;;;5011793;28;20569;-77
2023/06/03 09:28:58;;;;;;;1.80;0.70;;;38.20;27.40;;;;;;5010406;28;20194;-77
2023/06/03 09:31:24;;;;;;;2.17;0.80;;;38.40;27.20;;;;;;4993906;28;20570;-77
2023/06/03 09:33:51;;;;;;;3.20;1.10;;;38.60;26.50;;;;;;5010411;28;20589;-77
2023/06/03 09:36:17;;;;;;;4.73;1.00;;;38.40;25.80;;;;;;4999054;28;20586;-77
2023/06/03 09:38:46;;;;;;;1.70;0.70;;;38.10;26.60;;;;;;4997500;28;20659;-77
2023/06/03 09:41:18;;;;;;;2.57;1.00;;;37.50;25.40;;;;;;5009525;28;20205;-77
2023/06/03 09:44:02;;;;;;;1.70;0.70;;;37.20;25.90;;;;;;5011893;28;21060;-76
2023/06/03 09:46:32;;;;;;;1.80;0.80;;;37.40;25.80;;;;;;5010651;28;20588;-76
2023/06/03 09:49:14;;;;;;;2.77;1.10;;;37.20;25.80;;;;;;5011870;28;20604;-76
2023/06/03 09:51:47;;;;;;;2.13;1.00;;;37.00;24.70;;;;;;5026087;28;20578;-76
2023/06/03 09:54:18;;;;;;;2.00;1.03;;;36.90;25.80;;;;;;5011752;28;20628;-76
2023/06/03 09:56:45;;;;;;;3.83;0.80;;;37.00;25.40;;;;;;5011163;28;20588;-76
2023/06/03 09:59:25;;;;;;;5.40;0.90;;;37.00;26.00;;;;;;5011623;28;20601;-77
2023/06/03 10:01:54;;;;;;;3.40;1.00;;;37.20;26.30;;;;;;4993007;28;20667;-76
2023/06/03 10:04:23;;;;;;;2.20;0.90;;;37.30;26.50;;;;;;5009170;28;20655;-76
2023/06/03 10:07:13;;;;;;;5.30;1.20;;;37.60;26.40;;;;;;4995834;28;20588;-77
2023/06/03 10:09:44;;;;;;;1.83;0.90;;;37.60;24.70;;;;;;5011344;28;20616;-75
2023/06/03 10:12:11;;;;;;;2.40;0.90;;;37.30;25.40;;;;;;5010914;28;20572;-75
2023/06/03 10:14:50;;;;;;;2.33;0.87;;;37.30;25.70;;;;;;5015970;28;20937;-76
2023/06/03 10:17:17;;;;;;;2.10;0.90;;;37.30;25.50;;;;;;5011093;28;21093;-76
2023/06/03 10:19:45;;;;;;;2.70;0.97;;;37.30;25.90;;;;;;5010879;28;20628;-76
2023/06/03 10:22:13;;;;;;;8.80;2.53;;;37.50;25.90;;;;;;5009959;28;20680;-76
2023/06/03 10:24:40;;;;;;;3.40;0.90;;;37.70;26.10;;;;;;4993264;28;20649;-76
2023/06/03 10:27:07;;;;;;;2.07;0.90;;;37.80;25.80;;;;;;4999610;28;21081;-76
2023/06/03 10:29:33;;;;;;;1.70;0.70;;;37.70;25.90;;;;;;4989867;28;20641;-76
2023/06/03 10:32:00;;;;;;;1.83;0.90;;;37.70;25.40;;;;;;5006342;28;20586;-76
2023/06/03 10:34:30;;;;;;;1.60;0.80;;;37.70;25.50;;;;;;4996538;28;20954;-75
2023/06/03 10:37:01;;;;;;;2.53;0.90;;;37.70;25.30;;;;;;5026468;28;20588;-76
2023/06/03 10:39:29;;;;;;;2.23;1.00;;;37.60;25.30;;;;;;5009275;28;20633;-76
2023/06/03 10:42:00;;;;;;;2.20;0.90;;;37.50;25.10;;;;;;5010181;28;20593;-76
2023/06/03 10:44:27;;;;;;;1.60;0.80;;;37.30;24.50;;;;;;5009263;28;20640;-76
2023/06/03 10:46:53;;;;;;;1.53;0.80;;;36.70;24.90;;;;;;5026346;28;20586;-76
2023/06/03 10:49:21;;;;;;;3.00;0.90;;;36.50;25.50;;;;;;5011237;28;20605;-76
2023/06/03 10:52:20;;;;;;;4.23;1.10;;;36.50;25.80;;;;;;5015314;28;20177;-76
2023/06/03 10:55:25;;;;;;;2.00;0.90;;;36.30;24.90;;;;;;4993842;28;20600;-76
2023/06/03 10:58:04;;;;;;;2.30;1.00;;;36.00;25.90;;;;;;5014913;28;20680;-76
2023/06/03 11:00:58;;;;;;;2.33;1.00;;;35.90;25.70;;;;;;5011058;28;20611;-76
2023/06/03 11:03:34;;;;;;;1.77;0.80;;;35.70;25.70;;;;;;5004209;28;20581;-76
2023/06/03 11:06:18;;;;;;;2.73;1.07;;;35.60;26.00;;;;;;5013638;28;20627;-75
2023/06/03 11:09:05;;;;;;;1.60;0.77;;;35.60;26.40;;;;;;4993638;28;20618;-75
2023/06/03 11:11:48;;;;;;;2.57;0.80;;;35.70;26.20;;;;;;4994623;28;20554;-76
2023/06/03 11:14:27;;;;;;;2.90;1.27;;;35.90;26.20;;;;;;4994914;28;20566;-76
2023/06/03 11:17:01;;;;;;;2.33;0.80;;;35.90;26.10;;;;;;4993630;28;20681;-76
2023/06/03 11:19:34;;;;;;;2.53;0.90;;;36.00;26.30;;;;;;4994264;28;20988;-76
2023/06/03 11:22:09;;;;;;;3.87;0.90;;;36.00;26.30;;;;;;4993878;28;20574;-76
2023/06/03 11:24:37;;;;;;;2.80;1.03;;;36.10;26.40;;;;;;5009270;28;20640;-76
2023/06/03 11:27:15;;;;;;;2.33;1.07;;;36.20;26.00;;;;;;4995406;28;20627;-76
2023/06/03 11:29:44;;;;;;;3.60;1.00;;;36.10;25.80;;;;;;4994497;28;20680;-76
2023/06/03 11:32:15;;;;;;;1.77;0.80;;;35.90;25.40;;;;;;4993374;28;20585;-76
2023/06/03 11:34:42;;;;;;;6.03;1.63;;;35.60;25.40;;;;;;4994045;28;20677;-76
2023/06/03 11:37:11;;;;;;;2.53;0.80;;;35.40;25.70;;;;;;4996513;28;20589;-76
2023/06/03 11:39:59;;;;;;;2.50;0.90;;;35.30;26.00;;;;;;4995580;28;20633;-77
2023/06/03 11:42:25;;;;;;;1.93;0.80;;;35.20;25.90;;;;;;5004390;28;20586;-76
2023/06/03 11:44:51;;;;;;;2.73;0.90;;;35.30;26.20;;;;;;4992351;28;20664;-76
2023/06/03 11:47:16;;;;;;;6.80;1.50;;;35.10;25.90;;;;;;5009423;28;20186;-76
2023/06/03 11:49:42;;;;;;;1.80;0.87;;;34.90;25.70;;;;;;4992683;28;20197;-76
2023/06/03 11:52:09;;;;;;;3.80;0.90;;;34.60;25.60;;;;;;4993769;28;20170;-76
2023/06/03 11:54:43;;;;;;;3.40;1.30;;;34.40;25.80;;;;;;4994243;28;20583;-76
2023/06/03 11:57:09;;;;;;;2.00;0.90;;;34.10;25.80;;;;;;4992491;28;20619;-76
2023/06/03 11:59:44;;;;;;;1.87;0.90;;;34.00;26.20;;;;;;5001119;28;20611;-76
2023/06/03 12:02:10;;;;;;;2.93;1.03;;;33.70;26.10;;;;;;4992315;28;20576;-76
2023/06/03 12:04:36;;;;;;;3.80;1.00;;;33.60;26.00;;;;;;4996245;28;20624;-76
2023/06/03 12:07:09;;;;;;;2.00;1.00;;;33.20;26.30;;;;;;4993827;28;20581;-76
2023/06/03 12:09:35;;;;;;;1.70;0.80;;;33.10;26.30;;;;;;4992507;28;20203;-76
2023/06/03 12:12:07;;;;;;;1.93;0.90;;;32.90;26.40;;;;;;4975368;28;20639;-76
2023/06/03 12:14:33;;;;;;;3.30;0.90;;;32.80;26.40;;;;;;5009074;28;20678;-76
2023/06/03 12:17:14;;;;;;;26.83;1.87;;;32.90;26.70;;;;;;4993805;28;21001;-76
2023/06/03 12:19:48;;;;;;;3.13;0.70;;;32.70;26.70;;;;;;5006010;28;20953;-76
2023/06/03 12:22:24;;;;;;;2.47;0.80;;;32.60;26.50;;;;;;5011922;28;20592;-76
2023/06/03 12:24:50;;;;;;;2.97;1.10;;;32.50;26.50;;;;;;5012664;28;20630;-76
2023/06/03 12:27:21;;;;;;;2.37;1.00;;;32.40;26.60;;;;;;4995344;28;20649;-77
2023/06/03 12:29:50;;;;;;;1.77;0.80;;;32.30;26.60;;;;;;5011168;28;21170;-76
2023/06/03 12:32:16;;;;;;;2.03;0.80;;;32.20;26.80;;;;;;5011631;28;20619;-76
2023/06/03 12:34:43;;;;;;;2.00;0.80;;;32.20;26.70;;;;;;5012230;28;20919;-76
2023/06/03 12:37:12;;;;;;;3.60;0.90;;;32.10;26.60;;;;;;5013177;28;20568;-76
2023/06/03 12:39:50;;;;;;;3.00;0.90;;;31.90;26.60;;;;;;5012532;28;20615;-76
2023/06/03 12:42:21;;;;;;;1.77;0.80;;;31.80;26.50;;;;;;5008521;28;20631;-76
2023/06/03 12:44:52;;;;;;;4.30;0.80;;;31.50;26.40;;;;;;4992749;28;20632;-76
2023/06/03 12:47:20;;;;;;;9.63;1.27;;;31.20;26.80;;;;;;4993363;28;20609;-76
2023/06/03 12:50:07;;;;;;;1.80;0.80;;;30.80;26.30;;;;;;4992713;28;20618;-76
2023/06/03 12:52:37;;;;;;;2.57;0.90;;;30.40;26.40;;;;;;4993088;28;20601;-76
2023/06/03 12:55:09;;;;;;;3.83;1.20;;;30.10;26.30;;;;;;4997897;28;20594;-76
2023/06/03 12:57:37;;;;;;;2.23;0.73;;;29.70;26.70;;;;;;5010095;28;20672;-76
2023/06/03 13:00:19;;;;;;;1.83;0.90;;;29.30;26.50;;;;;;5010973;28;20617;-76